ジュネーヴ の空港の天気 - METARとTAF

ジュネーヴ・コアントラン国際空港 ( LSGG / GVA ) - スイス ジュネーヴ
飛行場実況気象(Metar)
観測時間01/22 10:50 CET (01/22 09:50 UTC)
風向・風速北北東 2m/s
視程4800m
天気現象もや
全天を覆う雲 雲底高度 210m
気温-3℃
湿度93%
気圧1024hPa
METARLSGG 220950Z 03003KT 350V070 4800 BR OVC007 M03/M04 Q1024 NOSIG
過去の天気等 Google飛行場航空写真 Wunderground天気予報

過去48時間のMETAR

飛行場予報(TAF)
発表時間: 1/22 09:25 CET (1/22 08:25 UTC)
予報対象時間: 22日10時 CET ~ 23日16時 CET
風向・風速北北東 2m/s
視程4,000m
天気現象もや
全天を覆う雲 雲底高度 150m
22日12時 CET ~ 22日15時 CET に徐々に
視程6,000m
全天の8割程度の雲 雲底高度 300m
22日18時 CET ~ 22日21時 CET に徐々に
視程4,000m
天気現象もや
全天を覆う雲 雲底高度 180m
23日11時 CET ~ 23日14時 CET に徐々に
全天の8割程度の雲 雲底高度 430m
TAF LSGG 220825Z 2209/2315 03004KT 4000 BR OVC005 TXM01/2215Z TNM05/2306Z TX00/2315Z
BECMG 2211/2214 6000 BKN010
BECMG 2217/2220 4000 BR OVC006
BECMG 2310/2313 BKN014